sensor_id;sensor_type;location;lat;lon;timestamp;temperature;humidity
56869;DHT22;42754;0.000;0.000;2022-07-24T00:00:27;17.60;99.90
56869;DHT22;42754;0.000;0.000;2022-07-24T00:02:53;17.60;99.90
56869;DHT22;42754;0.000;0.000;2022-07-24T00:05:18;17.60;99.90
56869;DHT22;42754;0.000;0.000;2022-07-24T00:07:44;17.60;99.90
56869;DHT22;42754;0.000;0.000;2022-07-24T00:10:10;17.60;99.90
56869;DHT22;42754;0.000;0.000;2022-07-24T00:12:37;17.60;99.90
56869;DHT22;42754;0.000;0.000;2022-07-24T00:15:03;17.50;99.90
56869;DHT22;42754;0.000;0.000;2022-07-24T00:17:29;17.50;99.90
56869;DHT22;42754;0.000;0.000;2022-07-24T00:19:55;17.50;99.90
56869;DHT22;42754;0.000;0.000;2022-07-24T00:22:20;17.50;99.90
56869;DHT22;42754;0.000;0.000;2022-07-24T00:24:46;17.50;99.90
56869;DHT22;42754;0.000;0.000;2022-07-24T00:27:12;17.50;99.90
56869;DHT22;42754;0.000;0.000;2022-07-24T00:29:37;17.50;99.90
56869;DHT22;42754;0.000;0.000;2022-07-24T00:32:03;17.50;99.90
56869;DHT22;42754;0.000;0.000;2022-07-24T00:34:29;17.40;99.90
56869;DHT22;42754;0.000;0.000;2022-07-24T00:36:54;17.40;99.90
56869;DHT22;42754;0.000;0.000;2022-07-24T00:39:20;17.40;99.90
56869;DHT22;42754;0.000;0.000;2022-07-24T00:41:46;17.40;99.90
56869;DHT22;42754;0.000;0.000;2022-07-24T00:44:14;17.30;99.90
56869;DHT22;42754;0.000;0.000;2022-07-24T00:46:42;17.30;99.90
56869;DHT22;42754;0.000;0.000;2022-07-24T00:49:11;17.30;99.90
56869;DHT22;42754;0.000;0.000;2022-07-24T00:51:40;17.30;99.90
56869;DHT22;42754;0.000;0.000;2022-07-24T00:54:08;17.20;99.90
56869;DHT22;42754;0.000;0.000;2022-07-24T00:56:34;17.20;99.90
56869;DHT22;42754;0.000;0.000;2022-07-24T00:59:00;17.20;99.90
56869;DHT22;42754;0.000;0.000;2022-07-24T01:01:27;17.20;99.90
56869;DHT22;42754;0.000;0.000;2022-07-24T01:03:53;17.10;99.90
56869;DHT22;42754;0.000;0.000;2022-07-24T01:06:19;17.10;99.90
56869;DHT22;42754;0.000;0.000;2022-07-24T01:08:45;17.10;99.90
56869;DHT22;42754;0.000;0.000;2022-07-24T01:11:11;17.00;99.90
56869;DHT22;42754;0.000;0.000;2022-07-24T01:13:39;17.10;99.90
56869;DHT22;42754;0.000;0.000;2022-07-24T01:16:06;17.10;99.90
56869;DHT22;42754;0.000;0.000;2022-07-24T01:18:31;17.10;99.90
56869;DHT22;42754;0.000;0.000;2022-07-24T01:20:57;17.00;99.90
56869;DHT22;42754;0.000;0.000;2022-07-24T01:23:23;17.00;99.90
56869;DHT22;42754;0.000;0.000;2022-07-24T01:25:50;16.90;99.90
56869;DHT22;42754;0.000;0.000;2022-07-24T01:28:16;16.90;99.90
56869;DHT22;42754;0.000;0.000;2022-07-24T01:30:42;16.90;99.90
56869;DHT22;42754;0.000;0.000;2022-07-24T01:33:07;16.90;99.90
56869;DHT22;42754;0.000;0.000;2022-07-24T01:35:33;16.80;99.90
56869;DHT22;42754;0.000;0.000;2022-07-24T01:37:59;16.80;99.90
56869;DHT22;42754;0.000;0.000;2022-07-24T01:40:25;16.80;99.90
56869;DHT22;42754;0.000;0.000;2022-07-24T01:42:50;16.70;99.90
56869;DHT22;42754;0.000;0.000;2022-07-24T01:45:17;16.80;99.90
56869;DHT22;42754;0.000;0.000;2022-07-24T01:47:43;16.80;99.90
56869;DHT22;42754;0.000;0.000;2022-07-24T01:50:12;16.80;99.90
56869;DHT22;42754;0.000;0.000;2022-07-24T01:52:38;16.80;99.90
56869;DHT22;42754;0.000;0.000;2022-07-24T01:55:04;16.80;99.90
56869;DHT22;42754;0.000;0.000;2022-07-24T01:57:30;16.70;99.90
56869;DHT22;42754;0.000;0.000;2022-07-24T01:59:57;16.80;99.90
56869;DHT22;42754;0.000;0.000;2022-07-24T02:02:23;16.70;99.90
56869;DHT22;42754;0.000;0.000;2022-07-24T02:04:48;16.70;99.90
56869;DHT22;42754;0.000;0.000;2022-07-24T02:07:14;16.70;99.90
56869;DHT22;42754;0.000;0.000;2022-07-24T02:09:40;16.70;99.90
56869;DHT22;42754;0.000;0.000;2022-07-24T02:12:06;16.70;99.90
56869;DHT22;42754;0.000;0.000;2022-07-24T02:14:31;16.70;99.90
56869;DHT22;42754;0.000;0.000;2022-07-24T02:16:57;16.60;99.90
56869;DHT22;42754;0.000;0.000;2022-07-24T02:19:23;16.60;99.90
56869;DHT22;42754;0.000;0.000;2022-07-24T02:21:49;16.60;99.90
56869;DHT22;42754;0.000;0.000;2022-07-24T02:24:15;16.60;99.90
56869;DHT22;42754;0.000;0.000;2022-07-24T02:26:41;16.60;99.90
56869;DHT22;42754;0.000;0.000;2022-07-24T02:29:07;16.50;99.90
56869;DHT22;42754;0.000;0.000;2022-07-24T02:31:32;16.50;99.90
56869;DHT22;42754;0.000;0.000;2022-07-24T02:33:58;16.50;99.90
56869;DHT22;42754;0.000;0.000;2022-07-24T02:36:24;16.50;99.90
56869;DHT22;42754;0.000;0.000;2022-07-24T02:38:49;16.40;99.90
56869;DHT22;42754;0.000;0.000;2022-07-24T02:41:16;16.40;99.90
56869;DHT22;42754;0.000;0.000;2022-07-24T02:43:42;16.40;99.90
56869;DHT22;42754;0.000;0.000;2022-07-24T02:46:07;16.40;99.90
56869;DHT22;42754;0.000;0.000;2022-07-24T02:48:33;16.40;99.90
56869;DHT22;42754;0.000;0.000;2022-07-24T02:50:59;16.40;99.90
56869;DHT22;42754;0.000;0.000;2022-07-24T02:53:25;16.30;99.90
56869;DHT22;42754;0.000;0.000;2022-07-24T02:55:51;16.40;99.90
56869;DHT22;42754;0.000;0.000;2022-07-24T02:58:16;16.40;99.90
56869;DHT22;42754;0.000;0.000;2022-07-24T03:00:42;16.30;99.90
56869;DHT22;42754;0.000;0.000;2022-07-24T03:03:08;16.30;99.90
56869;DHT22;42754;0.000;0.000;2022-07-24T03:05:33;16.30;99.90
56869;DHT22;42754;0.000;0.000;2022-07-24T03:07:59;16.30;99.90
56869;DHT22;42754;0.000;0.000;2022-07-24T03:10:25;16.30;99.90
56869;DHT22;42754;0.000;0.000;2022-07-24T03:12:51;16.30;99.90
56869;DHT22;42754;0.000;0.000;2022-07-24T03:15:17;16.20;99.90
56869;DHT22;42754;0.000;0.000;2022-07-24T03:17:51;16.20;99.90
56869;DHT22;42754;0.000;0.000;2022-07-24T03:20:18;16.20;99.90
56869;DHT22;42754;0.000;0.000;2022-07-24T03:22:44;16.20;99.90
56869;DHT22;42754;0.000;0.000;2022-07-24T03:25:10;16.20;99.90
56869;DHT22;42754;0.000;0.000;2022-07-24T03:27:36;16.20;99.90
56869;DHT22;42754;0.000;0.000;2022-07-24T03:30:03;16.20;99.90
56869;DHT22;42754;0.000;0.000;2022-07-24T03:32:30;16.20;99.90
56869;DHT22;42754;0.000;0.000;2022-07-24T03:34:56;16.20;99.90
56869;DHT22;42754;0.000;0.000;2022-07-24T03:37:21;16.20;99.90
56869;DHT22;42754;0.000;0.000;2022-07-24T03:39:47;16.20;99.90
56869;DHT22;42754;0.000;0.000;2022-07-24T03:42:12;16.10;99.90
56869;DHT22;42754;0.000;0.000;2022-07-24T03:44:38;16.10;99.90
56869;DHT22;42754;0.000;0.000;2022-07-24T03:47:04;16.10;99.90
56869;DHT22;42754;0.000;0.000;2022-07-24T03:49:29;16.10;99.90
56869;DHT22;42754;0.000;0.000;2022-07-24T03:51:55;16.10;99.90
56869;DHT22;42754;0.000;0.000;2022-07-24T03:54:21;16.00;99.90
56869;DHT22;42754;0.000;0.000;2022-07-24T03:56:47;16.10;99.90
56869;DHT22;42754;0.000;0.000;2022-07-24T03:59:13;16.10;99.90
56869;DHT22;42754;0.000;0.000;2022-07-24T04:01:38;16.10;99.90
56869;DHT22;42754;0.000;0.000;2022-07-24T04:04:04;16.10;99.90
56869;DHT22;42754;0.000;0.000;2022-07-24T04:06:31;16.10;99.90
56869;DHT22;42754;0.000;0.000;2022-07-24T04:08:58;16.10;99.90
56869;DHT22;42754;0.000;0.000;2022-07-24T04:11:24;16.20;99.90
56869;DHT22;42754;0.000;0.000;2022-07-24T04:13:50;16.10;99.90
56869;DHT22;42754;0.000;0.000;2022-07-24T04:16:15;16.20;99.90
56869;DHT22;42754;0.000;0.000;2022-07-24T04:18:41;16.20;99.90
56869;DHT22;42754;0.000;0.000;2022-07-24T04:21:06;16.20;99.90
56869;DHT22;42754;0.000;0.000;2022-07-24T04:23:32;16.30;99.90
56869;DHT22;42754;0.000;0.000;2022-07-24T04:25:58;16.30;99.90
56869;DHT22;42754;0.000;0.000;2022-07-24T04:28:24;16.40;99.90
56869;DHT22;42754;0.000;0.000;2022-07-24T04:30:49;16.40;99.90
56869;DHT22;42754;0.000;0.000;2022-07-24T04:33:15;16.40;99.90
56869;DHT22;42754;0.000;0.000;2022-07-24T04:35:40;16.50;99.90
56869;DHT22;42754;0.000;0.000;2022-07-24T04:38:06;16.50;99.90
56869;DHT22;42754;0.000;0.000;2022-07-24T04:40:32;16.50;99.90
56869;DHT22;42754;0.000;0.000;2022-07-24T04:42:57;16.50;99.90
56869;DHT22;42754;0.000;0.000;2022-07-24T04:45:23;16.50;99.90
56869;DHT22;42754;0.000;0.000;2022-07-24T04:47:48;16.50;99.90
56869;DHT22;42754;0.000;0.000;2022-07-24T04:50:14;16.60;99.90
56869;DHT22;42754;0.000;0.000;2022-07-24T04:52:40;16.60;99.90
56869;DHT22;42754;0.000;0.000;2022-07-24T04:55:06;16.70;99.90
56869;DHT22;42754;0.000;0.000;2022-07-24T04:57:32;16.80;99.90
56869;DHT22;42754;0.000;0.000;2022-07-24T04:59:58;16.90;99.90
56869;DHT22;42754;0.000;0.000;2022-07-24T05:02:23;17.00;99.90
56869;DHT22;42754;0.000;0.000;2022-07-24T05:04:49;17.00;99.90
56869;DHT22;42754;0.000;0.000;2022-07-24T05:07:15;17.10;99.90
56869;DHT22;42754;0.000;0.000;2022-07-24T05:09:40;17.20;99.90
56869;DHT22;42754;0.000;0.000;2022-07-24T05:12:06;17.40;99.90
56869;DHT22;42754;0.000;0.000;2022-07-24T05:14:32;17.50;99.90
56869;DHT22;42754;0.000;0.000;2022-07-24T05:16:57;17.80;99.90
56869;DHT22;42754;0.000;0.000;2022-07-24T05:19:23;18.00;99.90
56869;DHT22;42754;0.000;0.000;2022-07-24T05:21:49;18.10;99.90
56869;DHT22;42754;0.000;0.000;2022-07-24T05:24:14;18.30;99.90
56869;DHT22;42754;0.000;0.000;2022-07-24T05:26:40;18.40;99.90
56869;DHT22;42754;0.000;0.000;2022-07-24T05:29:05;18.60;99.90
56869;DHT22;42754;0.000;0.000;2022-07-24T05:31:33;18.80;99.90
56869;DHT22;42754;0.000;0.000;2022-07-24T05:33:58;19.00;99.90
56869;DHT22;42754;0.000;0.000;2022-07-24T05:36:24;19.20;99.90
56869;DHT22;42754;0.000;0.000;2022-07-24T05:38:50;19.20;99.90
56869;DHT22;42754;0.000;0.000;2022-07-24T05:41:16;19.30;99.90
56869;DHT22;42754;0.000;0.000;2022-07-24T05:43:42;19.40;99.90
56869;DHT22;42754;0.000;0.000;2022-07-24T05:46:07;19.60;99.90
56869;DHT22;42754;0.000;0.000;2022-07-24T05:48:33;19.80;99.90
56869;DHT22;42754;0.000;0.000;2022-07-24T05:50:59;19.80;99.90
56869;DHT22;42754;0.000;0.000;2022-07-24T05:53:25;19.80;99.90
56869;DHT22;42754;0.000;0.000;2022-07-24T05:55:50;20.00;99.90
56869;DHT22;42754;0.000;0.000;2022-07-24T05:58:17;20.00;99.90
56869;DHT22;42754;0.000;0.000;2022-07-24T06:00:43;20.20;99.90
56869;DHT22;42754;0.000;0.000;2022-07-24T06:03:08;20.40;99.90
56869;DHT22;42754;0.000;0.000;2022-07-24T06:05:34;20.50;99.90
56869;DHT22;42754;0.000;0.000;2022-07-24T06:08:00;20.70;99.90
56869;DHT22;42754;0.000;0.000;2022-07-24T06:10:25;21.10;99.90
56869;DHT22;42754;0.000;0.000;2022-07-24T06:12:53;21.20;99.90
56869;DHT22;42754;0.000;0.000;2022-07-24T06:15:18;21.50;99.90
56869;DHT22;42754;0.000;0.000;2022-07-24T06:17:44;21.80;99.90
56869;DHT22;42754;0.000;0.000;2022-07-24T06:20:10;22.00;99.90
56869;DHT22;42754;0.000;0.000;2022-07-24T06:22:39;21.90;99.90
56869;DHT22;42754;0.000;0.000;2022-07-24T06:25:05;21.90;99.90
56869;DHT22;42754;0.000;0.000;2022-07-24T06:27:31;22.20;99.90
56869;DHT22;42754;0.000;0.000;2022-07-24T06:29:57;22.40;99.90
56869;DHT22;42754;0.000;0.000;2022-07-24T06:32:23;22.60;99.90
56869;DHT22;42754;0.000;0.000;2022-07-24T06:34:48;22.80;99.90
56869;DHT22;42754;0.000;0.000;2022-07-24T06:37:15;22.70;99.90
56869;DHT22;42754;0.000;0.000;2022-07-24T06:39:41;23.70;99.90
56869;DHT22;42754;0.000;0.000;2022-07-24T06:42:06;24.10;99.50
56869;DHT22;42754;0.000;0.000;2022-07-24T06:44:32;24.50;98.80
56869;DHT22;42754;0.000;0.000;2022-07-24T06:47:00;24.50;98.80
56869;DHT22;42754;0.000;0.000;2022-07-24T06:49:25;24.50;98.70
56869;DHT22;42754;0.000;0.000;2022-07-24T06:51:51;24.60;98.50
56869;DHT22;42754;0.000;0.000;2022-07-24T06:54:17;24.60;98.50
56869;DHT22;42754;0.000;0.000;2022-07-24T06:56:42;24.30;98.10
56869;DHT22;42754;0.000;0.000;2022-07-24T06:59:08;24.10;97.80
56869;DHT22;42754;0.000;0.000;2022-07-24T07:01:33;24.10;98.10
56869;DHT22;42754;0.000;0.000;2022-07-24T07:03:59;24.10;98.30
56869;DHT22;42754;0.000;0.000;2022-07-24T07:06:25;24.20;97.90
56869;DHT22;42754;0.000;0.000;2022-07-24T07:08:51;24.00;98.10
56869;DHT22;42754;0.000;0.000;2022-07-24T07:11:16;24.00;98.50
56869;DHT22;42754;0.000;0.000;2022-07-24T07:13:42;23.90;98.50
56869;DHT22;42754;0.000;0.000;2022-07-24T07:16:08;23.90;98.10
56869;DHT22;42754;0.000;0.000;2022-07-24T07:18:33;24.20;98.10
56869;DHT22;42754;0.000;0.000;2022-07-24T07:21:01;24.60;97.80
56869;DHT22;42754;0.000;0.000;2022-07-24T07:23:27;24.50;96.60
56869;DHT22;42754;0.000;0.000;2022-07-24T07:25:52;24.60;96.80
56869;DHT22;42754;0.000;0.000;2022-07-24T07:28:20;24.90;96.80
56869;DHT22;42754;0.000;0.000;2022-07-24T07:30:45;24.80;96.30
56869;DHT22;42754;0.000;0.000;2022-07-24T07:33:12;24.60;96.50
56869;DHT22;42754;0.000;0.000;2022-07-24T07:35:38;24.40;96.10
56869;DHT22;42754;0.000;0.000;2022-07-24T07:38:05;24.40;96.50
56869;DHT22;42754;0.000;0.000;2022-07-24T07:40:30;24.50;96.20
56869;DHT22;42754;0.000;0.000;2022-07-24T07:42:56;24.90;95.90
56869;DHT22;42754;0.000;0.000;2022-07-24T07:45:21;25.10;95.00
56869;DHT22;42754;0.000;0.000;2022-07-24T07:47:48;24.90;94.40
56869;DHT22;42754;0.000;0.000;2022-07-24T07:50:14;24.80;94.70
56869;DHT22;42754;0.000;0.000;2022-07-24T07:52:40;24.60;94.40
56869;DHT22;42754;0.000;0.000;2022-07-24T07:55:07;24.30;93.50
56869;DHT22;42754;0.000;0.000;2022-07-24T07:57:33;24.10;93.50
56869;DHT22;42754;0.000;0.000;2022-07-24T07:59:59;24.10;93.40
56869;DHT22;42754;0.000;0.000;2022-07-24T08:02:27;24.10;93.30
56869;DHT22;42754;0.000;0.000;2022-07-24T08:04:52;24.00;93.80
56869;DHT22;42754;0.000;0.000;2022-07-24T08:07:18;24.10;93.60
56869;DHT22;42754;0.000;0.000;2022-07-24T08:09:43;24.20;93.60
56869;DHT22;42754;0.000;0.000;2022-07-24T08:12:10;24.10;92.40
56869;DHT22;42754;0.000;0.000;2022-07-24T08:14:36;24.20;92.70
56869;DHT22;42754;0.000;0.000;2022-07-24T08:17:03;24.30;91.50
56869;DHT22;42754;0.000;0.000;2022-07-24T08:19:28;24.40;91.40
56869;DHT22;42754;0.000;0.000;2022-07-24T08:21:54;24.80;91.40
56869;DHT22;42754;0.000;0.000;2022-07-24T08:24:20;25.30;91.10
56869;DHT22;42754;0.000;0.000;2022-07-24T08:26:49;25.80;90.00
56869;DHT22;42754;0.000;0.000;2022-07-24T08:29:15;26.60;86.80
56869;DHT22;42754;0.000;0.000;2022-07-24T08:31:41;27.00;86.40
56869;DHT22;42754;0.000;0.000;2022-07-24T08:34:06;27.30;84.50
56869;DHT22;42754;0.000;0.000;2022-07-24T08:36:32;27.50;83.80
56869;DHT22;42754;0.000;0.000;2022-07-24T08:38:58;28.10;81.70
56869;DHT22;42754;0.000;0.000;2022-07-24T08:41:27;28.60;81.20
56869;DHT22;42754;0.000;0.000;2022-07-24T08:43:58;29.00;80.80
56869;DHT22;42754;0.000;0.000;2022-07-24T08:46:26;29.60;80.40
56869;DHT22;42754;0.000;0.000;2022-07-24T08:48:53;30.10;77.40
56869;DHT22;42754;0.000;0.000;2022-07-24T08:51:19;29.90;76.70
56869;DHT22;42754;0.000;0.000;2022-07-24T08:53:45;30.30;76.50
56869;DHT22;42754;0.000;0.000;2022-07-24T08:56:12;30.60;75.00
56869;DHT22;42754;0.000;0.000;2022-07-24T08:58:39;30.50;74.70
56869;DHT22;42754;0.000;0.000;2022-07-24T09:01:06;30.60;74.10
56869;DHT22;42754;0.000;0.000;2022-07-24T09:06:07;31.00;72.50
56869;DHT22;42754;0.000;0.000;2022-07-24T09:08:33;31.10;72.80
56869;DHT22;42754;0.000;0.000;2022-07-24T09:11:01;31.90;73.00
56869;DHT22;42754;0.000;0.000;2022-07-24T09:13:32;32.30;70.80
56869;DHT22;42754;0.000;0.000;2022-07-24T09:16:24;32.10;74.20
56869;DHT22;42754;0.000;0.000;2022-07-24T09:19:07;30.90;72.30
56869;DHT22;42754;0.000;0.000;2022-07-24T09:21:38;31.30;71.30
56869;DHT22;42754;0.000;0.000;2022-07-24T09:24:16;31.70;70.20
56869;DHT22;42754;0.000;0.000;2022-07-24T09:26:54;32.30;70.00
56869;DHT22;42754;0.000;0.000;2022-07-24T09:29:22;32.20;69.60
56869;DHT22;42754;0.000;0.000;2022-07-24T09:32:00;32.20;70.60
56869;DHT22;42754;0.000;0.000;2022-07-24T09:34:28;31.60;68.90
56869;DHT22;42754;0.000;0.000;2022-07-24T09:37:03;31.70;70.40
56869;DHT22;42754;0.000;0.000;2022-07-24T09:39:31;31.40;68.20
56869;DHT22;42754;0.000;0.000;2022-07-24T09:42:03;31.20;69.60
56869;DHT22;42754;0.000;0.000;2022-07-24T09:44:30;32.00;69.40
56869;DHT22;42754;0.000;0.000;2022-07-24T09:46:58;32.00;67.50
56869;DHT22;42754;0.000;0.000;2022-07-24T09:49:24;31.80;69.00
56869;DHT22;42754;0.000;0.000;2022-07-24T09:52:14;31.90;67.70
56869;DHT22;42754;0.000;0.000;2022-07-24T09:54:51;32.00;67.40
56869;DHT22;42754;0.000;0.000;2022-07-24T09:57:23;31.90;67.60
56869;DHT22;42754;0.000;0.000;2022-07-24T10:02:18;32.40;66.50
56869;DHT22;42754;0.000;0.000;2022-07-24T10:04:45;32.20;67.30
56869;DHT22;42754;0.000;0.000;2022-07-24T10:07:13;32.90;67.30
56869;DHT22;42754;0.000;0.000;2022-07-24T10:09:45;32.40;66.30
56869;DHT22;42754;0.000;0.000;2022-07-24T10:12:14;32.20;67.60
56869;DHT22;42754;0.000;0.000;2022-07-24T10:14:41;32.30;68.30
56869;DHT22;42754;0.000;0.000;2022-07-24T10:17:08;32.50;67.70
56869;DHT22;42754;0.000;0.000;2022-07-24T10:19:51;32.60;66.50
56869;DHT22;42754;0.000;0.000;2022-07-24T10:22:19;32.80;66.70
56869;DHT22;42754;0.000;0.000;2022-07-24T10:29:52;32.70;66.10
56869;DHT22;42754;0.000;0.000;2022-07-24T10:32:18;32.80;66.10
56869;DHT22;42754;0.000;0.000;2022-07-24T10:37:31;32.50;65.60
56869;DHT22;42754;0.000;0.000;2022-07-24T10:40:11;32.20;65.40
56869;DHT22;42754;0.000;0.000;2022-07-24T10:45:32;32.00;66.50
56869;DHT22;42754;0.000;0.000;2022-07-24T10:47:58;32.40;65.50
56869;DHT22;42754;0.000;0.000;2022-07-24T10:53:25;32.40;65.20
56869;DHT22;42754;0.000;0.000;2022-07-24T10:55:51;32.90;65.30
56869;DHT22;42754;0.000;0.000;2022-07-24T10:58:17;33.10;64.30
56869;DHT22;42754;0.000;0.000;2022-07-24T11:00:47;32.30;65.40
56869;DHT22;42754;0.000;0.000;2022-07-24T11:03:29;32.60;64.90
56869;DHT22;42754;0.000;0.000;2022-07-24T11:06:06;32.70;64.60
56869;DHT22;42754;0.000;0.000;2022-07-24T11:08:39;32.80;64.90
56869;DHT22;42754;0.000;0.000;2022-07-24T11:11:14;32.90;64.50
56869;DHT22;42754;0.000;0.000;2022-07-24T11:13:41;33.10;64.30
56869;DHT22;42754;0.000;0.000;2022-07-24T11:24:16;32.80;64.30
56869;DHT22;42754;0.000;0.000;2022-07-24T11:29:37;32.80;65.60
56869;DHT22;42754;0.000;0.000;2022-07-24T11:32:09;32.90;64.30
56869;DHT22;42754;0.000;0.000;2022-07-24T11:34:36;33.20;65.30
56869;DHT22;42754;0.000;0.000;2022-07-24T11:37:05;33.00;64.10
56869;DHT22;42754;0.000;0.000;2022-07-24T11:39:37;32.80;64.10
56869;DHT22;42754;0.000;0.000;2022-07-24T11:42:07;32.50;64.50
56869;DHT22;42754;0.000;0.000;2022-07-24T11:44:41;32.40;64.40
56869;DHT22;42754;0.000;0.000;2022-07-24T11:47:22;32.30;64.90
56869;DHT22;42754;0.000;0.000;2022-07-24T11:49:56;32.60;65.50
56869;DHT22;42754;0.000;0.000;2022-07-24T11:52:26;33.10;65.20
56869;DHT22;42754;0.000;0.000;2022-07-24T11:54:55;33.20;66.40
56869;DHT22;42754;0.000;0.000;2022-07-24T11:57:23;33.30;65.80
56869;DHT22;42754;0.000;0.000;2022-07-24T11:59:50;33.10;65.80
56869;DHT22;42754;0.000;0.000;2022-07-24T12:02:17;32.80;65.00
56869;DHT22;42754;0.000;0.000;2022-07-24T12:04:44;32.60;64.40
56869;DHT22;42754;0.000;0.000;2022-07-24T12:07:12;33.10;66.60
56869;DHT22;42754;0.000;0.000;2022-07-24T12:12:38;32.60;65.10
56869;DHT22;42754;0.000;0.000;2022-07-24T12:15:09;32.60;65.10
56869;DHT22;42754;0.000;0.000;2022-07-24T12:18:05;33.10;66.00
56869;DHT22;42754;0.000;0.000;2022-07-24T12:20:42;32.80;65.20
56869;DHT22;42754;0.000;0.000;2022-07-24T12:23:11;32.40;65.20
56869;DHT22;42754;0.000;0.000;2022-07-24T12:25:38;32.90;66.40
56869;DHT22;42754;0.000;0.000;2022-07-24T12:28:16;32.80;65.60
56869;DHT22;42754;0.000;0.000;2022-07-24T12:30:45;32.80;65.60
56869;DHT22;42754;0.000;0.000;2022-07-24T12:35:58;33.20;65.90
56869;DHT22;42754;0.000;0.000;2022-07-24T12:38:34;33.30;64.40
56869;DHT22;42754;0.000;0.000;2022-07-24T12:41:12;32.70;65.00
56869;DHT22;42754;0.000;0.000;2022-07-24T12:43:50;32.90;67.50
56869;DHT22;42754;0.000;0.000;2022-07-24T12:46:19;32.90;65.60
56869;DHT22;42754;0.000;0.000;2022-07-24T12:49:06;32.70;65.40
56869;DHT22;42754;0.000;0.000;2022-07-24T12:51:58;32.10;66.00
56869;DHT22;42754;0.000;0.000;2022-07-24T12:54:32;32.50;65.90
56869;DHT22;42754;0.000;0.000;2022-07-24T12:57:07;32.70;65.80
56869;DHT22;42754;0.000;0.000;2022-07-24T12:59:35;32.80;65.20
56869;DHT22;42754;0.000;0.000;2022-07-24T13:04:31;32.90;65.20
56869;DHT22;42754;0.000;0.000;2022-07-24T13:06:59;32.90;65.90
56869;DHT22;42754;0.000;0.000;2022-07-24T13:09:28;32.90;66.20
56869;DHT22;42754;0.000;0.000;2022-07-24T13:11:55;32.80;66.20
56869;DHT22;42754;0.000;0.000;2022-07-24T13:14:22;32.90;66.80
56869;DHT22;42754;0.000;0.000;2022-07-24T13:16:50;32.70;66.30
56869;DHT22;42754;0.000;0.000;2022-07-24T13:19:17;32.60;65.60
56869;DHT22;42754;0.000;0.000;2022-07-24T13:21:44;32.40;66.20
56869;DHT22;42754;0.000;0.000;2022-07-24T13:24:11;32.60;66.60
56869;DHT22;42754;0.000;0.000;2022-07-24T13:26:38;32.50;68.30
56869;DHT22;42754;0.000;0.000;2022-07-24T13:29:05;32.10;68.20
56869;DHT22;42754;0.000;0.000;2022-07-24T13:31:31;32.20;67.50
56869;DHT22;42754;0.000;0.000;2022-07-24T13:33:56;32.10;67.00
56869;DHT22;42754;0.000;0.000;2022-07-24T13:36:22;32.40;67.50
56869;DHT22;42754;0.000;0.000;2022-07-24T13:38:48;32.10;66.70
56869;DHT22;42754;0.000;0.000;2022-07-24T13:41:14;32.00;66.70
56869;DHT22;42754;0.000;0.000;2022-07-24T13:43:42;32.00;67.80
56869;DHT22;42754;0.000;0.000;2022-07-24T13:46:07;31.90;68.00
56869;DHT22;42754;0.000;0.000;2022-07-24T13:48:33;32.00;67.50
56869;DHT22;42754;0.000;0.000;2022-07-24T13:50:59;32.00;67.60
56869;DHT22;42754;0.000;0.000;2022-07-24T13:53:24;32.10;68.20
56869;DHT22;42754;0.000;0.000;2022-07-24T13:55:50;32.10;68.00
56869;DHT22;42754;0.000;0.000;2022-07-24T13:58:16;31.90;68.10
56869;DHT22;42754;0.000;0.000;2022-07-24T14:00:41;31.80;68.70
56869;DHT22;42754;0.000;0.000;2022-07-24T14:03:07;31.70;68.30
56869;DHT22;42754;0.000;0.000;2022-07-24T14:05:33;31.50;68.20
56869;DHT22;42754;0.000;0.000;2022-07-24T14:07:58;31.60;68.80
56869;DHT22;42754;0.000;0.000;2022-07-24T14:10:24;31.70;70.90
56869;DHT22;42754;0.000;0.000;2022-07-24T14:12:50;31.70;69.00
56869;DHT22;42754;0.000;0.000;2022-07-24T14:15:16;31.80;69.60
56869;DHT22;42754;0.000;0.000;2022-07-24T14:17:43;31.70;68.90
56869;DHT22;42754;0.000;0.000;2022-07-24T14:20:10;31.70;68.90
56869;DHT22;42754;0.000;0.000;2022-07-24T14:22:37;31.60;69.20
56869;DHT22;42754;0.000;0.000;2022-07-24T14:25:04;31.50;70.60
56869;DHT22;42754;0.000;0.000;2022-07-24T14:27:30;31.50;69.50
56869;DHT22;42754;0.000;0.000;2022-07-24T14:29:56;31.40;69.00
56869;DHT22;42754;0.000;0.000;2022-07-24T14:32:22;31.40;69.10
56869;DHT22;42754;0.000;0.000;2022-07-24T14:34:48;31.40;69.10
56869;DHT22;42754;0.000;0.000;2022-07-24T14:37:14;31.30;69.20
56869;DHT22;42754;0.000;0.000;2022-07-24T14:39:39;31.30;69.00
56869;DHT22;42754;0.000;0.000;2022-07-24T14:42:05;30.90;69.70
56869;DHT22;42754;0.000;0.000;2022-07-24T14:44:30;31.20;69.50
56869;DHT22;42754;0.000;0.000;2022-07-24T14:46:56;31.10;70.10
56869;DHT22;42754;0.000;0.000;2022-07-24T14:49:24;31.20;69.50
56869;DHT22;42754;0.000;0.000;2022-07-24T14:51:49;30.90;69.50
56869;DHT22;42754;0.000;0.000;2022-07-24T14:54:15;30.80;70.60
56869;DHT22;42754;0.000;0.000;2022-07-24T14:56:40;31.00;70.10
56869;DHT22;42754;0.000;0.000;2022-07-24T14:59:07;31.10;70.20
56869;DHT22;42754;0.000;0.000;2022-07-24T15:01:33;31.10;70.80
56869;DHT22;42754;0.000;0.000;2022-07-24T15:03:59;31.10;70.00
56869;DHT22;42754;0.000;0.000;2022-07-24T15:06:27;31.10;70.50
56869;DHT22;42754;0.000;0.000;2022-07-24T15:08:53;31.00;70.70
56869;DHT22;42754;0.000;0.000;2022-07-24T15:11:19;31.00;70.90
56869;DHT22;42754;0.000;0.000;2022-07-24T15:13:47;30.80;70.80
56869;DHT22;42754;0.000;0.000;2022-07-24T15:16:14;30.80;70.70
56869;DHT22;42754;0.000;0.000;2022-07-24T15:18:39;30.70;70.20
56869;DHT22;42754;0.000;0.000;2022-07-24T15:21:05;30.80;70.60
56869;DHT22;42754;0.000;0.000;2022-07-24T15:23:31;30.90;71.70
56869;DHT22;42754;0.000;0.000;2022-07-24T15:25:56;30.80;70.80
56869;DHT22;42754;0.000;0.000;2022-07-24T15:28:22;30.80;70.50
56869;DHT22;42754;0.000;0.000;2022-07-24T15:30:48;30.80;70.40
56869;DHT22;42754;0.000;0.000;2022-07-24T15:33:13;30.70;70.60
56869;DHT22;42754;0.000;0.000;2022-07-24T15:35:39;30.80;71.30
56869;DHT22;42754;0.000;0.000;2022-07-24T15:38:05;30.80;71.30
56869;DHT22;42754;0.000;0.000;2022-07-24T15:40:31;30.80;72.10
56869;DHT22;42754;0.000;0.000;2022-07-24T15:42:58;30.70;71.00
56869;DHT22;42754;0.000;0.000;2022-07-24T15:45:24;30.70;72.10
56869;DHT22;42754;0.000;0.000;2022-07-24T15:47:50;30.50;71.40
56869;DHT22;42754;0.000;0.000;2022-07-24T15:50:16;30.50;71.50
56869;DHT22;42754;0.000;0.000;2022-07-24T15:52:42;30.60;72.00
56869;DHT22;42754;0.000;0.000;2022-07-24T15:55:08;30.50;71.60
56869;DHT22;42754;0.000;0.000;2022-07-24T15:57:33;30.50;71.90
56869;DHT22;42754;0.000;0.000;2022-07-24T15:59:59;30.50;71.70
56869;DHT22;42754;0.000;0.000;2022-07-24T16:02:25;30.50;72.20
56869;DHT22;42754;0.000;0.000;2022-07-24T16:04:51;30.30;71.40
56869;DHT22;42754;0.000;0.000;2022-07-24T16:07:18;30.40;72.70
56869;DHT22;42754;0.000;0.000;2022-07-24T16:09:47;30.30;72.00
56869;DHT22;42754;0.000;0.000;2022-07-24T16:12:13;30.10;72.00
56869;DHT22;42754;0.000;0.000;2022-07-24T16:14:38;30.30;72.60
56869;DHT22;42754;0.000;0.000;2022-07-24T16:17:04;30.30;72.00
56869;DHT22;42754;0.000;0.000;2022-07-24T16:19:30;30.20;72.50
56869;DHT22;42754;0.000;0.000;2022-07-24T16:21:57;30.10;72.40